MOL Celebration — C6WW7 — position and weather

sailwx.info

Track history (hours):
 
Tides and Currents Weather Stations Pressure Air Temp Water Temp Dewpoint Dewpoint Depression Visibility Wind Speed Wind Dir Waves Ship Positions

MOL Celebration

Last reported at 2015-Jul-30 21:34 UTC. Time now 2015-Jul-30 23:00 UTC.
Position N 38°49' W 129°09'.

Length 316 m; draft 11.7 m.

Type: Ship (hazmat cat D). MMSI: 309901000.

Date/timePositionNaut miles runAvg speedWind from/ knotsBaromVisibWave heightAir tempDewpointWater temp
2015-Jul-30 21:34N 38°49' W 129°09'2320.3
2015-Jul-30 20:26N 38°36' W 128°45'2221.0
2015-Jul-30 19:24N 38°24' W 128°22'1821.4
2015-Jul-30 18:33N 38°15' W 128°02'2120.7
2015-Jul-30 17:33N 38°10' W 127°37'2020.4
2015-Jul-30 16:33N 38°09' W 127°11'8 7.7
2015-Jul-30 15:34N 38°09' W 127°01'8 7.5
2015-Jul-30 14:33N 38°09' W 126°51'1615.7
2015-Jul-30 13:34N 38°09' W 126°31'2020.2
2015-Jul-30 12:33N 38°09' W 126°06'2020.1
2015-Jul-30 11:33N 38°09' W 125°40'2019.9
2015-Jul-30 10:34N 38°10' W 125°15'2019.6
2015-Jul-30 09:34N 38°09' W 124°50'2019.9
2015-Jul-30 08:34N 38°10' W 124°25'2020.2
2015-Jul-30 07:33N 38°09' W 123°59'2020.2
2015-Jul-30 06:33N 38°10' W 123°33'1212.1
2015-Jul-30 05:33N 38°07' W 123°18'9 9.4
2015-Jul-30 04:34N 38°00' W 123°10'9 9.5
2015-Jul-30 03:34N 37°55' W 123°00'10 9.7
2015-Jul-30 02:33N 37°50' W 122°49'9 9.4
2015-Jul-30 01:33N 37°46' W 122°39'1212.3
2015-Jul-30 00:33N 37°50' W 122°24'4 3.7
2015-Jul-29 23:33N 37°49' W 122°20'0 0.1
2015-Jul-29 22:33N 37°49' W 122°20'0 0.0
2015-Jul-29 21:33N 37°49' W 122°20'0 0.0
2015-Jul-29 20:33N 37°49' W 122°20'0 0.0
2015-Jul-29 19:33N 37°49' W 122°20'0 0.0
2015-Jul-29 18:33N 37°49' W 122°20'0 0.0
2015-Jul-29 17:33N 37°49' W 122°20'0 0.0
2015-Jul-29 16:33N 37°49' W 122°20'0 0.0
2015-Jul-29 15:33N 37°49' W 122°20'0 0.0
2015-Jul-29 14:33N 37°49' W 122°20'0 0.0
2015-Jul-29 13:33N 37°49' W 122°20'0 0.0
2015-Jul-29 12:33N 37°49' W 122°20'0 0.0
2015-Jul-29 11:33N 37°49' W 122°20'0 0.0
2015-Jul-29 10:33N 37°49' W 122°20'0 0.0
2015-Jul-29 09:33N 37°49' W 122°20'0 0.0
2015-Jul-29 08:33N 37°49' W 122°20'0 0.0
2015-Jul-29 07:33N 37°49' W 122°20'0 0.0
2015-Jul-29 06:33N 37°49' W 122°20'0 0.0
2015-Jul-29 05:33N 37°49' W 122°20'0 0.0
2015-Jul-29 04:33N 37°49' W 122°20'0 0.0
2015-Jul-29 03:33N 37°49' W 122°20'0 0.1
2015-Jul-29 02:33N 37°49' W 122°20'0 0.1
2015-Jul-29 01:33N 37°49' W 122°20'0 0.0
2015-Jul-29 00:33N 37°49' W 122°20'0 0.0
2015-Jul-28 23:33N 37°49' W 122°20'0 0.0
2015-Jul-28 22:33N 37°49' W 122°20'0 0.0
2015-Jul-28 21:33N 37°49' W 122°20'0 0.0
2015-Jul-28 20:33N 37°49' W 122°20'0 0.0
2015-Jul-28 19:33N 37°49' W 122°20'0 0.0
2015-Jul-28 18:33N 37°49' W 122°20'0 0.0
2015-Jul-28 17:32N 37°49' W 122°20'0 0.0
2015-Jul-28 16:33N 37°49' W 122°20'0 0.0
2015-Jul-28 15:33N 37°49' W 122°20'0 0.0
2015-Jul-28 14:32N 37°49' W 122°20'0 0.0
2015-Jul-28 13:33N 37°49' W 122°20'0 0.0
2015-Jul-28 12:32N 37°49' W 122°20'0 0.0
2015-Jul-28 11:33N 37°49' W 122°20'0 0.0
2015-Jul-28 10:32N 37°49' W 122°20'0 0.0
2015-Jul-28 09:33N 37°49' W 122°20'0 0.0
2015-Jul-28 08:33N 37°49' W 122°20'0 0.0
2015-Jul-28 07:32N 37°49' W 122°20'0 0.0
2015-Jul-28 06:32N 37°49' W 122°20'0 0.0
2015-Jul-28 05:32N 37°49' W 122°20'0 0.0
2015-Jul-28 04:32N 37°49' W 122°20'0 0.0
2015-Jul-28 03:32N 37°49' W 122°20'0 0.0
2015-Jul-28 02:32N 37°49' W 122°20'0 0.0
2015-Jul-28 01:32N 37°49' W 122°20'0 0.0
2015-Jul-28 00:32N 37°49' W 122°20'0 0.0
2015-Jul-27 23:33N 37°49' W 122°20'0 0.0
2015-Jul-27 22:32N 37°49' W 122°20'0 0.0
2015-Jul-27 21:32N 37°49' W 122°20'0 0.0
2015-Jul-27 20:32N 37°49' W 122°20'0 0.0
2015-Jul-27 19:32N 37°49' W 122°20'0 0.0
2015-Jul-27 18:32N 37°49' W 122°20'0 0.0
2015-Jul-27 17:32N 37°49' W 122°20'0 0.0
2015-Jul-27 16:32N 37°49' W 122°20'0 0.0
2015-Jul-27 15:32N 37°49' W 122°20'0 0.0
2015-Jul-27 14:32N 37°49' W 122°20'0 0.0
2015-Jul-27 13:32N 37°49' W 122°20'0 0.0
2015-Jul-27 12:32N 37°49' W 122°20'0 0.0
2015-Jul-27 11:32N 37°49' W 122°20'0 0.0
2015-Jul-27 10:32N 37°49' W 122°20'0 0.0
2015-Jul-27 09:32N 37°49' W 122°20'0 0.0
2015-Jul-27 08:32N 37°49' W 122°20'0 0.0
2015-Jul-27 07:32N 37°49' W 122°20'0 0.0
2015-Jul-27 06:32N 37°49' W 122°20'0 0.0
2015-Jul-27 05:32N 37°49' W 122°20'0 0.0
2015-Jul-27 04:32N 37°49' W 122°20'0 0.0
2015-Jul-27 03:32N 37°49' W 122°20'0 0.0
2015-Jul-27 02:32N 37°49' W 122°20'0 0.0
2015-Jul-27 01:32N 37°49' W 122°20'0 0.0
2015-Jul-27 00:32N 37°49' W 122°20'0 0.0
2015-Jul-26 23:33N 37°49' W 122°20'4 3.6
2015-Jul-26 22:33N 37°45' W 122°21'1 1.2
2015-Jul-26 21:32N 37°44' W 122°20'0 0.1
2015-Jul-26 20:32N 37°44' W 122°20'0 0.1
2015-Jul-26 19:32N 37°44' W 122°20'0 0.1
2015-Jul-26 18:32N 37°44' W 122°20'0 0.1
2015-Jul-26 17:32N 37°44' W 122°20'0 0.2
2015-Jul-26 16:32N 37°44' W 122°20'0 0.0
2015-Jul-26 15:32N 37°44' W 122°20'0 0.0
2015-Jul-26 14:32N 37°44' W 122°20'0 0.1
2015-Jul-26 13:33N 37°44' W 122°20'6 5.7
2015-Jul-26 12:33N 37°49' W 122°24'1211.7
2015-Jul-26 11:33N 37°46' W 122°38'7 7.5
2015-Jul-26 10:33N 37°38' W 122°40'7 7.4
2015-Jul-26 09:33N 37°31' W 122°40'8 7.8
2015-Jul-26 08:33N 37°23' W 122°40'8 7.9
2015-Jul-26 07:33N 37°15' W 122°40'10 9.9
2015-Jul-26 06:33N 37°05' W 122°40'1613.7
2015-Jul-26 05:22N 36°49' W 122°40'1721.2
2015-Jul-26 04:33N 36°32' W 122°35'2121.4
2015-Jul-26 03:33N 36°12' W 122°27'2121.1
2015-Jul-26 02:34N 35°53' W 122°17'2120.7
2015-Jul-26 01:34N 35°34' W 122°05'2120.7
2015-Jul-26 00:34N 35°18' W 121°50'2121.0
2015-Jul-25 23:34N 35°01' W 121°35'2121.3
2015-Jul-25 22:33N 34°43' W 121°21'2121.3
2015-Jul-25 21:33N 34°24' W 121°07'2121.5
2015-Jul-25 20:33N 34°07' W 120°53'2121.2
2015-Jul-25 19:34N 33°51' W 120°35'2221.5
2015-Jul-25 18:34N 33°43' W 120°11'2322.5
2015-Jul-25 17:34N 33°42' W 119°44'2221.7
2015-Jul-25 16:34N 33°42' W 119°18'1413.8
2015-Jul-25 15:33N 33°41' W 119°01'1211.6
2015-Jul-25 14:33N 33°40' W 118°48'1211.7
2015-Jul-25 13:33N 33°39' W 118°34'1211.6
2015-Jul-25 12:33N 33°35' W 118°20'9 9.0
2015-Jul-25 11:33N 33°43' W 118°15'4 3.5
2015-Jul-25 10:33N 33°46' W 118°17'0 0.1
2015-Jul-25 09:33N 33°46' W 118°16'0 0.0
2015-Jul-25 08:33N 33°46' W 118°16'0 0.0
2015-Jul-25 07:33N 33°46' W 118°16'0 0.0
2015-Jul-25 06:33N 33°46' W 118°16'0 0.0
2015-Jul-25 05:33N 33°46' W 118°16'0 0.0
2015-Jul-25 04:33N 33°46' W 118°16'0 0.0
2015-Jul-25 03:33N 33°46' W 118°16'0 0.0
2015-Jul-25 02:33N 33°46' W 118°16'0 0.0
2015-Jul-25 01:33N 33°46' W 118°16'0 0.0
2015-Jul-25 00:33N 33°46' W 118°16'0 0.0
2015-Jul-24 23:33N 33°46' W 118°16'0 0.0
2015-Jul-24 22:33N 33°46' W 118°16'0 0.0
2015-Jul-24 21:33N 33°46' W 118°16'0 0.0
2015-Jul-24 20:33N 33°46' W 118°16'0 0.0
2015-Jul-24 19:33N 33°46' W 118°16'0 0.0
2015-Jul-24 18:33N 33°46' W 118°16'0 0.0
2015-Jul-24 17:33N 33°46' W 118°16'0 0.0
2015-Jul-24 16:33N 33°46' W 118°16'0 0.0
2015-Jul-24 15:33N 33°46' W 118°16'0 0.0
2015-Jul-24 14:30N 33°46' W 118°16'0 0.0
2015-Jul-24 13:33N 33°46' W 118°16'0 0.0
2015-Jul-24 12:33N 33°46' W 118°16'0 0.0
2015-Jul-24 11:33N 33°46' W 118°16'0 0.0
2015-Jul-24 10:33N 33°46' W 118°16'0 0.0
2015-Jul-24 09:33N 33°46' W 118°16'0 0.0
2015-Jul-24 08:33N 33°46' W 118°16'0 0.0
2015-Jul-24 07:33N 33°46' W 118°16'0 0.0
2015-Jul-24 06:33N 33°46' W 118°16'0 0.0
2015-Jul-24 05:33N 33°46' W 118°16'0 0.0
2015-Jul-24 04:33N 33°46' W 118°16'0 0.0
2015-Jul-24 03:33N 33°46' W 118°16'0 0.0
2015-Jul-24 02:33N 33°46' W 118°16'0 0.0
2015-Jul-24 01:33N 33°46' W 118°16'0 0.0
2015-Jul-24 00:30N 33°46' W 118°16'0 0.0
2015-Jul-23 23:33N 33°46' W 118°16'0 0.0
2015-Jul-23 22:32N 33°46' W 118°16'0 0.0
2015-Jul-23 21:33N 33°46' W 118°16'0 0.0
2015-Jul-23 20:32N 33°46' W 118°16'0 0.0
2015-Jul-23 19:33N 33°46' W 118°16'0 0.0
2015-Jul-23 18:33N 33°46' W 118°16'0 0.0
2015-Jul-23 17:33N 33°46' W 118°16'0 0.0
2015-Jul-23 16:33N 33°46' W 118°16'0 0.0
2015-Jul-23 15:32N 33°46' W 118°16'0 0.0
2015-Jul-23 14:32N 33°46' W 118°16'0 0.0
2015-Jul-23 13:33N 33°46' W 118°16'0 0.0
2015-Jul-23 12:32N 33°46' W 118°16'0 0.0
2015-Jul-23 11:33N 33°46' W 118°16'0 0.0
2015-Jul-23 10:33N 33°46' W 118°16'0 0.0
2015-Jul-23 09:33N 33°46' W 118°16'0 0.0
2015-Jul-23 08:32N 33°46' W 118°16'0 0.0
2015-Jul-23 07:33N 33°46' W 118°16'0 0.0
2015-Jul-23 06:33N 33°46' W 118°16'0 0.0
2015-Jul-23 05:27N 33°46' W 118°16'0 0.0
2015-Jul-23 04:33N 33°46' W 118°16'0 0.0
2015-Jul-23 03:23N 33°46' W 118°16'0 0.0
2015-Jul-23 02:32N 33°46' W 118°16'0 0.0
2015-Jul-23 01:32N 33°46' W 118°16'0 0.0
2015-Jul-23 00:32N 33°46' W 118°16'0 0.0
2015-Jul-22 23:32N 33°46' W 118°16'0 0.0
2015-Jul-22 22:32N 33°46' W 118°16'0 0.0
2015-Jul-22 21:32N 33°46' W 118°16'0 0.0
2015-Jul-22 20:32N 33°46' W 118°16'0 0.0
2015-Jul-22 19:32N 33°46' W 118°16'0 0.0
2015-Jul-22 18:32N 33°46' W 118°16'0 0.0
2015-Jul-22 17:32N 33°46' W 118°16'0 0.0
2015-Jul-22 16:32N 33°46' W 118°16'0 0.0
2015-Jul-22 15:32N 33°46' W 118°16'0 0.0
2015-Jul-22 14:32N 33°46' W 118°16'0 0.0
2015-Jul-22 13:32N 33°46' W 118°16'0 0.0
2015-Jul-22 12:32N 33°46' W 118°16'0 0.0
2015-Jul-22 11:32N 33°46' W 118°16'0 0.4
2015-Jul-22 10:32N 33°46' W 118°16'0 0.0
2015-Jul-22 09:32N 33°46' W 118°16'0 0.0
2015-Jul-22 08:32N 33°46' W 118°16'0 0.0
2015-Jul-22 07:29N 33°46' W 118°16'0 0.0
2015-Jul-22 06:32N 33°46' W 118°16'0 0.0
2015-Jul-22 05:32N 33°46' W 118°16'0 0.0
2015-Jul-22 04:32N 33°46' W 118°16'0 0.0
2015-Jul-22 03:23N 33°46' W 118°16'0 0.0
2015-Jul-22 02:32N 33°46' W 118°16'0 0.0
2015-Jul-22 01:32N 33°46' W 118°16'0 0.0
2015-Jul-22 00:32N 33°46' W 118°16'0 0.0
2015-Jul-21 23:26N 33°46' W 118°16'0 0.0
2015-Jul-21 22:14N 33°46' W 118°16'0 0.0
2015-Jul-21 21:23N 33°46' W 118°16'0 0.0
2015-Jul-21 20:23N 33°46' W 118°16'0 0.0
2015-Jul-21 19:29N 33°46' W 118°16'0 0.0
2015-Jul-21 18:32N 33°46' W 118°16'0 0.0
2015-Jul-21 17:32N 33°46' W 118°16'0 0.0
2015-Jul-21 16:32N 33°46' W 118°16'0 0.0
2015-Jul-21 11:05N 33°46' W 118°16'0 0.0
2015-Jul-21 06:17N 33°46' W 118°16'0 0.0
2015-Jul-21 05:26N 33°46' W 118°16'0 0.0
2015-Jul-21 04:26N 33°46' W 118°16'0 0.0
2015-Jul-21 03:32N 33°46' W 118°16'0 0.0
2015-Jul-21 02:32N 33°46' W 118°16'0 0.0
2015-Jul-21 01:29N 33°46' W 118°16'0 0.0
2015-Jul-21 00:32N 33°46' W 118°16'0 0.0
2015-Jul-20 23:32N 33°46' W 118°16'0 0.0
2015-Jul-20 22:08N 33°46' W 118°16'  
Track history (hours):
 
Tides and Currents Weather Stations Pressure Air Temp Water Temp Dewpoint Dewpoint Depression Visibility Wind Speed Wind Dir Waves Ship Positions

MOL Celebration

Last reported at 2015-Jul-30 21:34 UTC. Time now 2015-Jul-30 23:00 UTC.
Position N 38°49' W 129°09'.

Length 316 m; draft 11.7 m.

Type: Ship (hazmat cat D). MMSI: 309901000.

Date/timePositionNaut miles runAvg speedWind from/ knotsBaromVisibWave heightAir tempDewpointWater temp
2015-Jul-30 21:34N 38°49' W 129°09'2320.3
2015-Jul-30 20:26N 38°36' W 128°45'2221.0
2015-Jul-30 19:24N 38°24' W 128°22'1821.4
2015-Jul-30 18:33N 38°15' W 128°02'2120.7
2015-Jul-30 17:33N 38°10' W 127°37'2020.4
2015-Jul-30 16:33N 38°09' W 127°11'8 7.7
2015-Jul-30 15:34N 38°09' W 127°01'8 7.5
2015-Jul-30 14:33N 38°09' W 126°51'1615.7
2015-Jul-30 13:34N 38°09' W 126°31'2020.2
2015-Jul-30 12:33N 38°09' W 126°06'2020.1
2015-Jul-30 11:33N 38°09' W 125°40'2019.9
2015-Jul-30 10:34N 38°10' W 125°15'2019.6
2015-Jul-30 09:34N 38°09' W 124°50'2019.9
2015-Jul-30 08:34N 38°10' W 124°25'2020.2
2015-Jul-30 07:33N 38°09' W 123°59'2020.2
2015-Jul-30 06:33N 38°10' W 123°33'1212.1
2015-Jul-30 05:33N 38°07' W 123°18'9 9.4
2015-Jul-30 04:34N 38°00' W 123°10'9 9.5
2015-Jul-30 03:34N 37°55' W 123°00'10 9.7
2015-Jul-30 02:33N 37°50' W 122°49'9 9.4
2015-Jul-30 01:33N 37°46' W 122°39'1212.3
2015-Jul-30 00:33N 37°50' W 122°24'4 3.7
2015-Jul-29 23:33N 37°49' W 122°20'0 0.1
2015-Jul-29 22:33N 37°49' W 122°20'0 0.0
2015-Jul-29 21:33N 37°49' W 122°20'0 0.0
2015-Jul-29 20:33N 37°49' W 122°20'0 0.0
2015-Jul-29 19:33N 37°49' W 122°20'0 0.0
2015-Jul-29 18:33N 37°49' W 122°20'0 0.0
2015-Jul-29 17:33N 37°49' W 122°20'0 0.0
2015-Jul-29 16:33N 37°49' W 122°20'0 0.0
2015-Jul-29 15:33N 37°49' W 122°20'0 0.0
2015-Jul-29 14:33N 37°49' W 122°20'0 0.0
2015-Jul-29 13:33N 37°49' W 122°20'0 0.0
2015-Jul-29 12:33N 37°49' W 122°20'0 0.0
2015-Jul-29 11:33N 37°49' W 122°20'0 0.0
2015-Jul-29 10:33N 37°49' W 122°20'0 0.0
2015-Jul-29 09:33N 37°49' W 122°20'0 0.0
2015-Jul-29 08:33N 37°49' W 122°20'0 0.0
2015-Jul-29 07:33N 37°49' W 122°20'0 0.0
2015-Jul-29 06:33N 37°49' W 122°20'0 0.0
2015-Jul-29 05:33N 37°49' W 122°20'0 0.0
2015-Jul-29 04:33N 37°49' W 122°20'0 0.0
2015-Jul-29 03:33N 37°49' W 122°20'0 0.1
2015-Jul-29 02:33N 37°49' W 122°20'0 0.1
2015-Jul-29 01:33N 37°49' W 122°20'0 0.0
2015-Jul-29 00:33N 37°49' W 122°20'0 0.0
2015-Jul-28 23:33N 37°49' W 122°20'0 0.0
2015-Jul-28 22:33N 37°49' W 122°20'0 0.0
2015-Jul-28 21:33N 37°49' W 122°20'0 0.0
2015-Jul-28 20:33N 37°49' W 122°20'0 0.0
2015-Jul-28 19:33N 37°49' W 122°20'0 0.0
2015-Jul-28 18:33N 37°49' W 122°20'0 0.0
2015-Jul-28 17:32N 37°49' W 122°20'0 0.0
2015-Jul-28 16:33N 37°49' W 122°20'0 0.0
2015-Jul-28 15:33N 37°49' W 122°20'0 0.0
2015-Jul-28 14:32N 37°49' W 122°20'0 0.0
2015-Jul-28 13:33N 37°49' W 122°20'0 0.0
2015-Jul-28 12:32N 37°49' W 122°20'0 0.0
2015-Jul-28 11:33N 37°49' W 122°20'0 0.0
2015-Jul-28 10:32N 37°49' W 122°20'0 0.0
2015-Jul-28 09:33N 37°49' W 122°20'0 0.0
2015-Jul-28 08:33N 37°49' W 122°20'0 0.0
2015-Jul-28 07:32N 37°49' W 122°20'0 0.0
2015-Jul-28 06:32N 37°49' W 122°20'0 0.0
2015-Jul-28 05:32N 37°49' W 122°20'0 0.0
2015-Jul-28 04:32N 37°49' W 122°20'0 0.0
2015-Jul-28 03:32N 37°49' W 122°20'0 0.0
2015-Jul-28 02:32N 37°49' W 122°20'0 0.0
2015-Jul-28 01:32N 37°49' W 122°20'0 0.0
2015-Jul-28 00:32N 37°49' W 122°20'0 0.0
2015-Jul-27 23:33N 37°49' W 122°20'0 0.0
2015-Jul-27 22:32N 37°49' W 122°20'0 0.0
2015-Jul-27 21:32N 37°49' W 122°20'0 0.0
2015-Jul-27 20:32N 37°49' W 122°20'0 0.0
2015-Jul-27 19:32N 37°49' W 122°20'0 0.0
2015-Jul-27 18:32N 37°49' W 122°20'0 0.0
2015-Jul-27 17:32N 37°49' W 122°20'0 0.0
2015-Jul-27 16:32N 37°49' W 122°20'0 0.0
2015-Jul-27 15:32N 37°49' W 122°20'0 0.0
2015-Jul-27 14:32N 37°49' W 122°20'0 0.0
2015-Jul-27 13:32N 37°49' W 122°20'0 0.0
2015-Jul-27 12:32N 37°49' W 122°20'0 0.0
2015-Jul-27 11:32N 37°49' W 122°20'0 0.0
2015-Jul-27 10:32N 37°49' W 122°20'0 0.0
2015-Jul-27 09:32N 37°49' W 122°20'0 0.0
2015-Jul-27 08:32N 37°49' W 122°20'0 0.0
2015-Jul-27 07:32N 37°49' W 122°20'0 0.0
2015-Jul-27 06:32N 37°49' W 122°20'0 0.0
2015-Jul-27 05:32N 37°49' W 122°20'0 0.0
2015-Jul-27 04:32N 37°49' W 122°20'0 0.0
2015-Jul-27 03:32N 37°49' W 122°20'0 0.0
2015-Jul-27 02:32N 37°49' W 122°20'0 0.0
2015-Jul-27 01:32N 37°49' W 122°20'0 0.0
2015-Jul-27 00:32N 37°49' W 122°20'0 0.0
2015-Jul-26 23:33N 37°49' W 122°20'4 3.6
2015-Jul-26 22:33N 37°45' W 122°21'1 1.2
2015-Jul-26 21:32N 37°44' W 122°20'0 0.1
2015-Jul-26 20:32N 37°44' W 122°20'0 0.1
2015-Jul-26 19:32N 37°44' W 122°20'0 0.1
2015-Jul-26 18:32N 37°44' W 122°20'0 0.1
2015-Jul-26 17:32N 37°44' W 122°20'0 0.2
2015-Jul-26 16:32N 37°44' W 122°20'0 0.0
2015-Jul-26 15:32N 37°44' W 122°20'0 0.0
2015-Jul-26 14:32N 37°44' W 122°20'0 0.1
2015-Jul-26 13:33N 37°44' W 122°20'6 5.7
2015-Jul-26 12:33N 37°49' W 122°24'1211.7
2015-Jul-26 11:33N 37°46' W 122°38'7 7.5
2015-Jul-26 10:33N 37°38' W 122°40'7 7.4
2015-Jul-26 09:33N 37°31' W 122°40'8 7.8
2015-Jul-26 08:33N 37°23' W 122°40'8 7.9
2015-Jul-26 07:33N 37°15' W 122°40'10 9.9
2015-Jul-26 06:33N 37°05' W 122°40'1613.7
2015-Jul-26 05:22N 36°49' W 122°40'1721.2
2015-Jul-26 04:33N 36°32' W 122°35'2121.4
2015-Jul-26 03:33N 36°12' W 122°27'2121.1
2015-Jul-26 02:34N 35°53' W 122°17'2120.7
2015-Jul-26 01:34N 35°34' W 122°05'2120.7
2015-Jul-26 00:34N 35°18' W 121°50'2121.0
2015-Jul-25 23:34N 35°01' W 121°35'2121.3
2015-Jul-25 22:33N 34°43' W 121°21'2121.3
2015-Jul-25 21:33N 34°24' W 121°07'2121.5
2015-Jul-25 20:33N 34°07' W 120°53'2121.2
2015-Jul-25 19:34N 33°51' W 120°35'2221.5
2015-Jul-25 18:34N 33°43' W 120°11'2322.5
2015-Jul-25 17:34N 33°42' W 119°44'2221.7
2015-Jul-25 16:34N 33°42' W 119°18'1413.8
2015-Jul-25 15:33N 33°41' W 119°01'1211.6
2015-Jul-25 14:33N 33°40' W 118°48'1211.7
2015-Jul-25 13:33N 33°39' W 118°34'1211.6
2015-Jul-25 12:33N 33°35' W 118°20'9 9.0
2015-Jul-25 11:33N 33°43' W 118°15'4 3.5
2015-Jul-25 10:33N 33°46' W 118°17'0 0.1
2015-Jul-25 09:33N 33°46' W 118°16'0 0.0
2015-Jul-25 08:33N 33°46' W 118°16'0 0.0
2015-Jul-25 07:33N 33°46' W 118°16'0 0.0
2015-Jul-25 06:33N 33°46' W 118°16'0 0.0
2015-Jul-25 05:33N 33°46' W 118°16'0 0.0
2015-Jul-25 04:33N 33°46' W 118°16'0 0.0
2015-Jul-25 03:33N 33°46' W 118°16'0 0.0
2015-Jul-25 02:33N 33°46' W 118°16'0 0.0
2015-Jul-25 01:33N 33°46' W 118°16'0 0.0
2015-Jul-25 00:33N 33°46' W 118°16'0 0.0
2015-Jul-24 23:33N 33°46' W 118°16'0 0.0
2015-Jul-24 22:33N 33°46' W 118°16'0 0.0
2015-Jul-24 21:33N 33°46' W 118°16'0 0.0
2015-Jul-24 20:33N 33°46' W 118°16'0 0.0
2015-Jul-24 19:33N 33°46' W 118°16'0 0.0
2015-Jul-24 18:33N 33°46' W 118°16'0 0.0
2015-Jul-24 17:33N 33°46' W 118°16'0 0.0
2015-Jul-24 16:33N 33°46' W 118°16'0 0.0
2015-Jul-24 15:33N 33°46' W 118°16'0 0.0
2015-Jul-24 14:30N 33°46' W 118°16'0 0.0
2015-Jul-24 13:33N 33°46' W 118°16'0 0.0
2015-Jul-24 12:33N 33°46' W 118°16'0 0.0
2015-Jul-24 11:33N 33°46' W 118°16'0 0.0
2015-Jul-24 10:33N 33°46' W 118°16'0 0.0
2015-Jul-24 09:33N 33°46' W 118°16'0 0.0
2015-Jul-24 08:33N 33°46' W 118°16'0 0.0
2015-Jul-24 07:33N 33°46' W 118°16'0 0.0
2015-Jul-24 06:33N 33°46' W 118°16'0 0.0
2015-Jul-24 05:33N 33°46' W 118°16'0 0.0
2015-Jul-24 04:33N 33°46' W 118°16'0 0.0
2015-Jul-24 03:33N 33°46' W 118°16'0 0.0
2015-Jul-24 02:33N 33°46' W 118°16'0 0.0
2015-Jul-24 01:33N 33°46' W 118°16'0 0.0
2015-Jul-24 00:30N 33°46' W 118°16'0 0.0
2015-Jul-23 23:33N 33°46' W 118°16'0 0.0
2015-Jul-23 22:32N 33°46' W 118°16'0 0.0
2015-Jul-23 21:33N 33°46' W 118°16'0 0.0
2015-Jul-23 20:32N 33°46' W 118°16'0 0.0
2015-Jul-23 19:33N 33°46' W 118°16'0 0.0
2015-Jul-23 18:33N 33°46' W 118°16'0 0.0
2015-Jul-23 17:33N 33°46' W 118°16'0 0.0
2015-Jul-23 16:33N 33°46' W 118°16'0 0.0
2015-Jul-23 15:32N 33°46' W 118°16'0 0.0
2015-Jul-23 14:32N 33°46' W 118°16'0 0.0
2015-Jul-23 13:33N 33°46' W 118°16'0 0.0
2015-Jul-23 12:32N 33°46' W 118°16'0 0.0
2015-Jul-23 11:33N 33°46' W 118°16'0 0.0
2015-Jul-23 10:33N 33°46' W 118°16'0 0.0
2015-Jul-23 09:33N 33°46' W 118°16'0 0.0
2015-Jul-23 08:32N 33°46' W 118°16'0 0.0
2015-Jul-23 07:33N 33°46' W 118°16'0 0.0
2015-Jul-23 06:33N 33°46' W 118°16'0 0.0
2015-Jul-23 05:27N 33°46' W 118°16'0 0.0
2015-Jul-23 04:33N 33°46' W 118°16'0 0.0
2015-Jul-23 03:23N 33°46' W 118°16'0 0.0
2015-Jul-23 02:32N 33°46' W 118°16'0 0.0
2015-Jul-23 01:32N 33°46' W 118°16'0 0.0
2015-Jul-23 00:32N 33°46' W 118°16'0 0.0
2015-Jul-22 23:32N 33°46' W 118°16'0 0.0
2015-Jul-22 22:32N 33°46' W 118°16'0 0.0
2015-Jul-22 21:32N 33°46' W 118°16'0 0.0
2015-Jul-22 20:32N 33°46' W 118°16'0 0.0
2015-Jul-22 19:32N 33°46' W 118°16'0 0.0
2015-Jul-22 18:32N 33°46' W 118°16'0 0.0
2015-Jul-22 17:32N 33°46' W 118°16'0 0.0
2015-Jul-22 16:32N 33°46' W 118°16'0 0.0
2015-Jul-22 15:32N 33°46' W 118°16'0 0.0
2015-Jul-22 14:32N 33°46' W 118°16'0 0.0
2015-Jul-22 13:32N 33°46' W 118°16'0 0.0
2015-Jul-22 12:32N 33°46' W 118°16'0 0.0
2015-Jul-22 11:32N 33°46' W 118°16'0 0.4
2015-Jul-22 10:32N 33°46' W 118°16'0 0.0
2015-Jul-22 09:32N 33°46' W 118°16'0 0.0
2015-Jul-22 08:32N 33°46' W 118°16'0 0.0
2015-Jul-22 07:29N 33°46' W 118°16'0 0.0
2015-Jul-22 06:32N 33°46' W 118°16'0 0.0
2015-Jul-22 05:32N 33°46' W 118°16'0 0.0
2015-Jul-22 04:32N 33°46' W 118°16'0 0.0
2015-Jul-22 03:23N 33°46' W 118°16'0 0.0
2015-Jul-22 02:32N 33°46' W 118°16'0 0.0
2015-Jul-22 01:32N 33°46' W 118°16'0 0.0
2015-Jul-22 00:32N 33°46' W 118°16'0 0.0
2015-Jul-21 23:26N 33°46' W 118°16'0 0.0
2015-Jul-21 22:14N 33°46' W 118°16'0 0.0
2015-Jul-21 21:23N 33°46' W 118°16'0 0.0
2015-Jul-21 20:23N 33°46' W 118°16'0 0.0
2015-Jul-21 19:29N 33°46' W 118°16'0 0.0
2015-Jul-21 18:32N 33°46' W 118°16'0 0.0
2015-Jul-21 17:32N 33°46' W 118°16'0 0.0
2015-Jul-21 16:32N 33°46' W 118°16'0 0.0
2015-Jul-21 11:05N 33°46' W 118°16'0 0.0
2015-Jul-21 06:17N 33°46' W 118°16'0 0.0
2015-Jul-21 05:26N 33°46' W 118°16'0 0.0
2015-Jul-21 04:26N 33°46' W 118°16'0 0.0
2015-Jul-21 03:32N 33°46' W 118°16'0 0.0
2015-Jul-21 02:32N 33°46' W 118°16'0 0.0
2015-Jul-21 01:29N 33°46' W 118°16'0 0.0
2015-Jul-21 00:32N 33°46' W 118°16'0 0.0
2015-Jul-20 23:32N 33°46' W 118°16'0 0.0
2015-Jul-20 22:08N 33°46' W 118°16'  

Dump ship's entire track history